Terminal Aerodrome Forecast
Issued by NWS

Home | Current Version | Previous Version | Graphics & Text | Print | Product List | Glossary On
Versions: 1 2 3 4 5 6 7 8 9 10 11 12 13 14 15 16 17 18 19 20
000
FTUS43 KMPX 201120
TAFRNH
TAF
KRNH 201120Z 2012/2112 02006KT 4SM -DZ BR OVC008
     FM201500 36008KT P6SM OVC008
     FM201700 33010KT P6SM OVC012
     FM210000 34012KT P6SM BKN035
     FM210500 33006KT P6SM SCT035=

USA.gov is the U.S. government's official web portal to all federal, state and local government web resources and services.